createdAt,value
2023-04-24T00:00:02.467Z,12.18
2023-04-24T00:01:02.371Z,12.19
2023-04-24T00:02:02.835Z,12.19
2023-04-24T00:03:02.410Z,12.20
2023-04-24T00:04:02.510Z,12.21
2023-04-24T00:05:02.614Z,12.23
2023-04-24T00:06:02.564Z,12.23
2023-04-24T00:07:02.994Z,12.23
2023-04-24T00:08:02.500Z,12.21
2023-04-24T00:09:02.928Z,12.24
2023-04-24T00:10:02.655Z,12.26
2023-04-24T00:11:02.409Z,12.29
2023-04-24T00:12:02.620Z,12.30
2023-04-24T00:13:02.090Z,12.32
2023-04-24T00:14:01.993Z,12.32
2023-04-24T00:15:02.451Z,12.32
2023-04-24T00:16:02.156Z,12.32
2023-04-24T00:17:01.638Z,12.33
2023-04-24T00:18:02.349Z,12.33
2023-04-24T00:19:01.925Z,12.37
2023-04-24T00:20:01.936Z,12.37
2023-04-24T00:21:01.677Z,12.35
2023-04-24T00:22:02.105Z,12.33
2023-04-24T00:23:02.531Z,12.32
2023-04-24T00:24:02.243Z,12.32
2023-04-24T00:25:02.654Z,12.32
2023-04-24T00:26:02.375Z,12.32
2023-04-24T00:27:02.271Z,12.32
2023-04-24T00:28:02.547Z,12.33
2023-04-24T00:29:02.299Z,12.33
2023-04-24T00:30:02.716Z,12.34
2023-04-24T00:31:02.677Z,12.34
2023-04-24T00:32:02.268Z,12.36
2023-04-24T00:33:02.732Z,12.37
2023-04-24T00:34:02.851Z,12.39
2023-04-24T00:35:02.573Z,12.42
2023-04-24T00:36:02.306Z,12.41
2023-04-24T00:37:01.782Z,12.41
2023-04-24T00:38:02.283Z,12.42
2023-04-24T00:39:01.992Z,12.43
2023-04-24T00:40:02.387Z,12.44
2023-04-24T00:41:01.897Z,12.44
2023-04-24T00:42:02.440Z,12.43
2023-04-24T00:43:02.269Z,12.43
2023-04-24T00:44:02.780Z,12.42
2023-04-24T00:45:02.262Z,12.39
2023-04-24T00:46:02.855Z,12.39
2023-04-24T00:47:02.480Z,12.39
2023-04-24T00:48:02.932Z,12.37
2023-04-24T00:49:02.477Z,12.37
2023-04-24T00:50:02.769Z,12.41
2023-04-24T00:51:02.425Z,12.41
2023-04-24T00:52:01.886Z,12.40
2023-04-24T00:53:02.426Z,12.37
2023-04-24T00:54:01.844Z,12.35
2023-04-24T00:55:02.190Z,12.31
2023-04-24T00:56:02.006Z,12.29
2023-04-24T00:57:02.465Z,12.28
2023-04-24T00:58:02.905Z,12.23
2023-04-24T00:59:02.353Z,12.19
2023-04-24T01:00:02.739Z,12.21
2023-04-24T01:01:02.650Z,12.21
2023-04-24T01:02:02.275Z,12.18
2023-04-24T01:03:02.211Z,12.17
2023-04-24T01:04:02.724Z,12.18
2023-04-24T01:05:02.615Z,12.20
2023-04-24T01:06:02.128Z,12.23
2023-04-24T01:07:02.849Z,12.24
2023-04-24T01:08:02.623Z,12.28
2023-04-24T01:09:02.482Z,12.30
2023-04-24T01:10:03.001Z,12.33
2023-04-24T01:11:02.827Z,12.35
2023-04-24T01:12:02.561Z,12.35
2023-04-24T01:13:03.018Z,12.35
2023-04-24T01:14:02.757Z,12.33
2023-04-24T01:15:02.552Z,12.32
2023-04-24T01:16:03.097Z,12.31
2023-04-24T01:17:02.684Z,12.26
2023-04-24T01:18:02.525Z,12.25
2023-04-24T01:19:02.873Z,12.24
2023-04-24T01:20:02.690Z,12.25
2023-04-24T01:21:02.516Z,12.26
2023-04-24T01:22:02.120Z,12.28
2023-04-24T01:23:02.267Z,12.26
2023-04-24T01:24:02.256Z,12.25
2023-04-24T01:25:01.997Z,12.27
2023-04-24T01:26:01.875Z,12.26
2023-04-24T01:27:02.741Z,12.24
2023-04-24T01:28:02.174Z,12.24
2023-04-24T01:29:02.604Z,12.22
2023-04-24T01:30:02.703Z,12.20
2023-04-24T01:31:02.611Z,12.19
2023-04-24T01:32:02.375Z,12.16
2023-04-24T01:33:02.272Z,12.13
2023-04-24T01:34:02.722Z,12.10
2023-04-24T01:35:02.299Z,12.07
2023-04-24T01:36:02.519Z,12.02
2023-04-24T01:37:02.070Z,11.98
2023-04-24T01:38:01.920Z,11.97
2023-04-24T01:39:01.742Z,11.93
2023-04-24T01:40:02.252Z,11.93
2023-04-24T01:41:02.007Z,11.95
2023-04-24T01:42:02.427Z,11.95
2023-04-24T01:43:02.289Z,11.94
2023-04-24T01:44:02.653Z,11.96
2023-04-24T01:45:02.429Z,11.97
2023-04-24T01:46:02.852Z,11.91
2023-04-24T01:47:02.248Z,11.90
2023-04-24T01:48:02.031Z,11.88
2023-04-24T01:49:02.088Z,11.85
2023-04-24T01:50:01.973Z,11.81
2023-04-24T01:51:02.300Z,11.74
2023-04-24T01:52:02.609Z,11.65
2023-04-24T01:53:02.387Z,11.58
2023-04-24T01:54:02.793Z,11.49
2023-04-24T01:55:02.402Z,11.45
2023-04-24T01:56:02.783Z,11.40
2023-04-24T01:57:01.768Z,11.34
2023-04-24T01:58:02.022Z,11.25
2023-04-24T01:59:02.275Z,11.23
2023-04-24T02:00:01.702Z,11.18
2023-04-24T02:01:02.170Z,11.17
2023-04-24T02:02:02.714Z,11.16
2023-04-24T02:03:02.497Z,11.16
2023-04-24T02:04:02.952Z,11.17
2023-04-24T02:05:02.357Z,11.14
2023-04-24T02:06:02.818Z,11.15
2023-04-24T02:07:02.158Z,11.13
2023-04-24T02:08:01.996Z,11.13
2023-04-24T02:09:01.902Z,11.11
2023-04-24T02:10:01.649Z,11.11
2023-04-24T02:11:02.236Z,11.08
2023-04-24T02:12:02.327Z,11.08
2023-04-24T02:13:02.163Z,11.07
2023-04-24T02:14:02.028Z,11.09
2023-04-24T02:15:01.893Z,11.10
2023-04-24T02:16:02.287Z,11.09
2023-04-24T02:17:02.729Z,11.10
2023-04-24T02:18:02.538Z,11.10
2023-04-24T02:19:02.309Z,11.11
2023-04-24T02:20:02.448Z,11.10
2023-04-24T02:21:02.618Z,11.10
2023-04-24T02:22:02.212Z,11.09
2023-04-24T02:23:02.010Z,11.05
2023-04-24T02:24:01.855Z,11.00
2023-04-24T02:25:01.634Z,10.93
2023-04-24T02:26:02.158Z,10.88
2023-04-24T02:27:02.122Z,10.83
2023-04-24T02:28:01.625Z,10.80
2023-04-24T02:29:02.169Z,10.74
2023-04-24T02:30:01.898Z,10.71
2023-04-24T02:31:01.723Z,10.67
2023-04-24T02:32:02.371Z,10.66
2023-04-24T02:33:01.929Z,10.64
2023-04-24T02:34:01.650Z,10.63
2023-04-24T02:35:02.111Z,10.57
2023-04-24T02:36:01.936Z,10.56
2023-04-24T02:37:02.479Z,10.54
2023-04-24T02:38:02.335Z,10.55
2023-04-24T02:39:02.014Z,10.58
2023-04-24T02:40:02.456Z,10.61
2023-04-24T02:41:02.344Z,10.61
2023-04-24T02:42:02.383Z,10.55
2023-04-24T02:43:02.754Z,10.53
2023-04-24T02:44:02.576Z,10.52
2023-04-24T02:45:02.576Z,10.48
2023-04-24T02:46:02.937Z,10.44
2023-04-24T02:47:02.142Z,10.38
2023-04-24T02:48:01.784Z,10.34
2023-04-24T02:49:02.115Z,10.25
2023-04-24T02:50:01.844Z,10.17
2023-04-24T02:51:01.646Z,10.09
2023-04-24T02:52:02.194Z,10.01
2023-04-24T02:53:01.878Z,9.98
2023-04-24T02:54:02.330Z,9.95
2023-04-24T02:55:01.829Z,9.89
2023-04-24T02:56:02.320Z,9.84
2023-04-24T02:57:02.754Z,9.81
2023-04-24T02:58:02.725Z,9.78
2023-04-24T02:59:02.285Z,9.75
2023-04-24T03:00:02.750Z,9.72
2023-04-24T03:01:02.389Z,9.73
2023-04-24T03:02:02.812Z,9.74
2023-04-24T03:03:02.534Z,9.75
2023-04-24T03:04:03.165Z,9.75
2023-04-24T03:05:02.275Z,9.75
2023-04-24T03:06:02.733Z,9.75
2023-04-24T03:07:02.002Z,9.76
2023-04-24T03:08:01.879Z,9.78
2023-04-24T03:09:01.983Z,9.81
2023-04-24T03:10:01.614Z,9.82
2023-04-24T03:11:02.048Z,9.82
2023-04-24T03:12:02.471Z,9.85
2023-04-24T03:13:02.438Z,9.84
2023-04-24T03:14:01.829Z,9.83
2023-04-24T03:15:02.235Z,9.83
2023-04-24T03:16:01.992Z,9.83
2023-04-24T03:17:02.536Z,9.82
2023-04-24T03:18:02.425Z,9.81
2023-04-24T03:19:02.046Z,9.84
2023-04-24T03:20:01.904Z,9.82
2023-04-24T03:21:02.185Z,9.77
2023-04-24T03:22:02.653Z,9.69
2023-04-24T03:23:02.157Z,9.60
2023-04-24T03:24:02.519Z,9.56
2023-04-24T03:25:02.344Z,9.51
2023-04-24T03:26:02.132Z,9.46
2023-04-24T03:27:01.567Z,9.40
2023-04-24T03:28:01.959Z,9.37
2023-04-24T03:29:01.724Z,9.35
2023-04-24T03:30:02.139Z,9.35
2023-04-24T03:31:01.822Z,9.34
2023-04-24T03:32:02.902Z,9.33
2023-04-24T03:33:02.905Z,9.33
2023-04-24T03:34:02.364Z,9.32
2023-04-24T03:35:02.372Z,9.29
2023-04-24T03:36:02.742Z,9.25
2023-04-24T03:37:02.310Z,9.23
2023-04-24T03:38:02.109Z,9.22
2023-04-24T03:39:02.283Z,9.20
2023-04-24T03:40:01.967Z,9.17
2023-04-24T03:41:02.203Z,9.15
2023-04-24T03:42:01.939Z,9.14
2023-04-24T03:43:01.943Z,9.14
2023-04-24T03:44:01.888Z,9.15
2023-04-24T03:45:02.317Z,9.14
2023-04-24T03:46:02.143Z,9.15
2023-04-24T03:47:01.681Z,9.15
2023-04-24T03:48:02.071Z,9.14
2023-04-24T03:49:01.725Z,9.11
2023-04-24T03:50:02.133Z,9.09
2023-04-24T03:51:01.723Z,9.08
2023-04-24T03:52:02.184Z,9.06
2023-04-24T03:53:02.544Z,9.03
2023-04-24T03:54:02.709Z,9.03
2023-04-24T03:55:02.376Z,9.03
2023-04-24T03:56:02.073Z,9.08
2023-04-24T03:57:02.554Z,9.11
2023-04-24T03:58:02.480Z,9.14
2023-04-24T03:59:02.913Z,9.19
2023-04-24T04:00:02.536Z,9.23
2023-04-24T04:01:02.411Z,9.27
2023-04-24T04:02:03.045Z,9.32
2023-04-24T04:03:03.156Z,9.38
2023-04-24T04:04:03.190Z,9.42
2023-04-24T04:05:03.194Z,9.42
2023-04-24T04:06:03.350Z,9.44
2023-04-24T04:07:02.986Z,9.47
2023-04-24T04:08:03.354Z,9.46
2023-04-24T04:09:03.398Z,9.39
2023-04-24T04:10:03.223Z,9.32
2023-04-24T04:11:05.134Z,9.20
2023-04-24T04:12:02.977Z,9.13
2023-04-24T04:13:02.707Z,9.06
2023-04-24T04:14:02.384Z,8.99
2023-04-24T04:15:02.524Z,8.94
2023-04-24T04:16:02.537Z,8.93
2023-04-24T04:17:03.006Z,8.90
2023-04-24T04:18:02.797Z,8.87
2023-04-24T04:19:02.973Z,8.86
2023-04-24T04:20:02.811Z,8.86
2023-04-24T04:21:02.831Z,8.84
2023-04-24T04:22:03.288Z,8.80
2023-04-24T04:23:03.741Z,8.77
2023-04-24T04:24:03.311Z,8.74
2023-04-24T04:25:03.472Z,8.72
2023-04-24T04:26:03.650Z,8.73
2023-04-24T04:27:02.951Z,8.73
2023-04-24T04:28:03.343Z,8.71
2023-04-24T04:29:02.673Z,8.70
2023-04-24T04:30:03.116Z,8.69
2023-04-24T04:31:02.842Z,8.70
2023-04-24T04:32:03.468Z,8.70
2023-04-24T04:33:03.839Z,8.73
2023-04-24T04:34:03.520Z,8.73
2023-04-24T04:35:03.407Z,8.75
2023-04-24T04:36:03.664Z,8.76
2023-04-24T04:37:02.780Z,8.78
2023-04-24T04:38:02.504Z,8.80
2023-04-24T04:39:03.088Z,8.83
2023-04-24T04:40:02.708Z,8.85
2023-04-24T04:41:02.728Z,8.88
2023-04-24T04:42:03.178Z,8.93
2023-04-24T04:43:03.554Z,8.95
2023-04-24T04:44:03.097Z,9.01
2023-04-24T04:45:02.932Z,9.05
2023-04-24T04:46:02.927Z,9.06
2023-04-24T04:47:02.273Z,9.07
2023-04-24T04:48:02.721Z,9.07
2023-04-24T04:49:02.332Z,9.07
2023-04-24T04:50:02.378Z,9.08
2023-04-24T04:51:02.312Z,9.07
2023-04-24T04:52:02.903Z,9.06
2023-04-24T04:53:02.634Z,9.06
2023-04-24T04:54:02.795Z,9.07
2023-04-24T04:55:03.064Z,9.08
2023-04-24T04:56:03.064Z,9.06
2023-04-24T04:57:04.333Z,9.03
2023-04-24T04:58:02.860Z,8.98
2023-04-24T04:59:03.070Z,8.95
2023-04-24T05:00:02.975Z,8.93
2023-04-24T05:01:02.864Z,8.90
2023-04-24T05:02:03.754Z,8.88
2023-04-24T05:03:18.654Z,8.86
2023-04-24T05:04:03.805Z,8.85
2023-04-24T05:05:03.559Z,8.84
2023-04-24T05:06:03.117Z,8.83
2023-04-24T05:07:03.490Z,8.84
2023-04-24T05:08:04.523Z,8.82
2023-04-24T05:09:03.164Z,8.81
2023-04-24T05:10:03.053Z,8.81
2023-04-24T05:11:03.595Z,8.80
2023-04-24T05:12:03.171Z,8.82
2023-04-24T05:13:03.092Z,8.81
2023-04-24T05:14:02.972Z,8.83
2023-04-24T05:15:02.780Z,8.85
2023-04-24T05:16:03.152Z,8.86
2023-04-24T05:17:02.853Z,8.88
2023-04-24T05:18:02.896Z,8.92
2023-04-24T05:19:02.608Z,8.95
2023-04-24T05:20:02.530Z,8.99
2023-04-24T05:21:02.948Z,8.96
2023-04-24T05:22:03.312Z,8.96
2023-04-24T05:23:02.934Z,8.97
2023-04-24T05:24:02.808Z,8.97
2023-04-24T05:25:03.185Z,8.96
2023-04-24T05:26:03.727Z,8.97
2023-04-24T05:27:03.654Z,8.97
2023-04-24T05:28:03.494Z,8.96
2023-04-24T05:29:03.732Z,8.97
2023-04-24T05:30:03.218Z,9.00
2023-04-24T05:31:03.901Z,9.03
2023-04-24T05:32:03.286Z,9.04
2023-04-24T05:33:03.085Z,9.03
2023-04-24T05:34:03.128Z,9.05
2023-04-24T05:35:03.078Z,9.06
2023-04-24T05:36:02.925Z,9.07
2023-04-24T05:37:03.516Z,9.08
2023-04-24T05:38:03.402Z,9.09
2023-04-24T05:39:03.231Z,9.10
2023-04-24T05:40:02.993Z,9.12
2023-04-24T05:41:03.518Z,9.13
2023-04-24T05:42:03.239Z,9.14
2023-04-24T05:43:03.091Z,9.14
2023-04-24T05:44:03.764Z,9.13
2023-04-24T05:45:03.581Z,9.15
2023-04-24T05:46:03.566Z,9.15
2023-04-24T05:47:02.966Z,9.17
2023-04-24T05:48:03.204Z,9.17
2023-04-24T05:49:02.603Z,9.18
2023-04-24T05:50:03.118Z,9.19
2023-04-24T05:51:03.101Z,9.21
2023-04-24T05:52:02.793Z,9.22
2023-04-24T05:53:03.258Z,9.25
2023-04-24T05:54:03.182Z,9.22
2023-04-24T05:55:03.173Z,9.21
2023-04-24T05:56:02.901Z,9.22
2023-04-24T05:57:03.467Z,9.24
2023-04-24T05:58:03.172Z,9.26
2023-04-24T05:59:03.063Z,9.27
2023-04-24T06:00:03.421Z,9.28
2023-04-24T06:01:03.139Z,9.27
2023-04-24T06:02:03.471Z,9.26
2023-04-24T06:03:03.887Z,9.28
2023-04-24T06:04:03.294Z,9.30
2023-04-24T06:05:03.441Z,9.31
2023-04-24T06:06:03.527Z,9.31
2023-04-24T06:07:02.865Z,9.28
2023-04-24T06:08:02.850Z,9.26
2023-04-24T06:09:02.681Z,9.25
2023-04-24T06:10:02.558Z,9.23
2023-04-24T06:11:04.489Z,9.22
2023-04-24T06:12:02.850Z,9.22
2023-04-24T06:13:02.811Z,9.22
2023-04-24T06:14:03.306Z,9.21
2023-04-24T06:15:03.120Z,9.21
2023-04-24T06:16:03.150Z,9.21
2023-04-24T06:17:03.054Z,9.22
2023-04-24T06:18:03.649Z,9.22
2023-04-24T06:19:03.297Z,9.23
2023-04-24T06:20:03.037Z,9.25
2023-04-24T06:21:03.626Z,9.24
2023-04-24T06:22:02.255Z,9.24
2023-04-24T06:23:02.386Z,9.26
2023-04-24T06:24:02.554Z,9.26
2023-04-24T06:25:02.391Z,9.27
2023-04-24T06:26:02.157Z,9.29
2023-04-24T06:27:02.801Z,9.31
2023-04-24T06:28:02.875Z,9.31
2023-04-24T06:29:02.830Z,9.30
2023-04-24T06:30:03.141Z,9.29
2023-04-24T06:31:03.014Z,9.31
2023-04-24T06:32:02.607Z,9.31
2023-04-24T06:33:09.549Z,9.33
2023-04-24T06:34:02.386Z,9.35
2023-04-24T06:35:02.375Z,9.34
2023-04-24T06:36:02.950Z,9.35
2023-04-24T06:37:02.528Z,9.34
2023-04-24T06:38:02.551Z,9.35
2023-04-24T06:39:02.598Z,9.34
2023-04-24T06:40:02.792Z,9.35
2023-04-24T06:41:02.660Z,9.36
2023-04-24T06:42:02.580Z,9.35
2023-04-24T06:43:02.586Z,9.35
2023-04-24T06:44:03.048Z,9.33
2023-04-24T06:45:02.697Z,9.33
2023-04-24T06:46:02.966Z,9.34
2023-04-24T06:47:02.777Z,9.35
2023-04-24T06:48:02.787Z,9.36
2023-04-24T06:49:02.736Z,9.37
2023-04-24T06:50:02.762Z,9.34
2023-04-24T06:51:02.621Z,9.33
2023-04-24T06:52:03.172Z,9.33
2023-04-24T06:53:03.122Z,9.30
2023-04-24T06:54:03.186Z,9.23
2023-04-24T06:55:03.663Z,9.22
2023-04-24T06:56:03.286Z,9.21
2023-04-24T06:57:02.458Z,9.21
2023-04-24T06:58:02.491Z,9.21
2023-04-24T06:59:02.658Z,9.19
2023-04-24T07:00:02.627Z,9.18
2023-04-24T07:01:02.671Z,9.18
2023-04-24T07:02:02.620Z,9.14
2023-04-24T07:03:02.524Z,9.14
2023-04-24T07:04:02.755Z,9.12
2023-04-24T07:05:02.938Z,9.09
2023-04-24T07:06:02.914Z,9.09
2023-04-24T07:07:01.925Z,9.09
2023-04-24T07:08:02.076Z,9.05
2023-04-24T07:09:02.358Z,9.02
2023-04-24T07:10:02.076Z,9.01
2023-04-24T07:11:01.959Z,9.00
2023-04-24T07:12:02.570Z,9.00
2023-04-24T07:13:02.869Z,9.01
2023-04-24T07:14:02.461Z,9.04
2023-04-24T07:15:02.277Z,9.06
2023-04-24T07:16:02.704Z,9.07
2023-04-24T07:17:02.600Z,9.07
2023-04-24T07:18:05.473Z,9.08
2023-04-24T07:19:02.848Z,9.07
2023-04-24T07:20:02.457Z,9.06
2023-04-24T07:21:02.725Z,9.04
2023-04-24T07:22:01.727Z,9.01
2023-04-24T07:23:01.515Z,9.00
2023-04-24T07:24:01.446Z,8.98
2023-04-24T07:25:01.982Z,8.99
2023-04-24T07:26:01.917Z,9.00
2023-04-24T07:27:01.757Z,9.00
2023-04-24T07:28:01.728Z,9.03
2023-04-24T07:29:01.565Z,9.04
2023-04-24T07:30:02.089Z,9.02
2023-04-24T07:31:01.922Z,9.02
2023-04-24T07:32:04.072Z,9.03
2023-04-24T07:33:02.017Z,9.04
2023-04-24T07:34:01.672Z,9.07
2023-04-24T07:35:02.195Z,9.10
2023-04-24T07:36:01.848Z,9.12
2023-04-24T07:37:02.602Z,9.15
2023-04-24T07:38:02.880Z,9.17
2023-04-24T07:39:02.239Z,9.18
2023-04-24T07:40:02.253Z,9.21
2023-04-24T07:41:02.273Z,9.17
2023-04-24T07:42:01.916Z,9.13
2023-04-24T07:43:01.882Z,9.09
2023-04-24T07:44:01.641Z,9.06
2023-04-24T07:45:01.757Z,9.07
2023-04-24T07:46:01.790Z,9.06
2023-04-24T07:47:02.254Z,9.07
2023-04-24T07:48:02.270Z,9.07
2023-04-24T07:49:12.372Z,9.10
2023-04-24T07:50:02.058Z,9.13
2023-04-24T07:51:01.971Z,9.14
2023-04-24T07:52:02.618Z,9.14
2023-04-24T07:53:02.434Z,9.11
2023-04-24T07:54:02.385Z,9.13
2023-04-24T07:55:02.304Z,9.16
2023-04-24T07:56:02.794Z,9.19
2023-04-24T07:57:02.187Z,9.21
2023-04-24T07:58:02.189Z,9.24
2023-04-24T07:59:01.991Z,9.26
2023-04-24T08:00:02.174Z,9.29
2023-04-24T08:01:02.177Z,9.31
2023-04-24T08:02:02.667Z,9.31
2023-04-24T08:03:02.721Z,9.33
2023-04-24T08:04:02.873Z,9.33
2023-04-24T08:05:02.907Z,9.35
2023-04-24T08:06:02.406Z,9.32
2023-04-24T08:07:03.140Z,9.31
2023-04-24T08:08:02.976Z,9.29
2023-04-24T08:09:03.301Z,9.32
2023-04-24T08:10:03.165Z,9.34
2023-04-24T08:11:02.871Z,9.37
2023-04-24T08:12:02.422Z,9.41
2023-04-24T08:13:02.423Z,9.44
2023-04-24T08:14:02.034Z,9.48
2023-04-24T08:15:01.990Z,9.50
2023-04-24T08:16:01.975Z,9.50
2023-04-24T08:17:02.468Z,9.51
2023-04-24T08:18:02.592Z,9.50
2023-04-24T08:19:02.319Z,9.48
2023-04-24T08:20:02.449Z,9.42
2023-04-24T08:21:02.125Z,9.42
2023-04-24T08:22:02.719Z,9.34
2023-04-24T08:23:02.713Z,9.28
2023-04-24T08:24:02.729Z,9.18
2023-04-24T08:25:02.681Z,9.08
2023-04-24T08:26:02.940Z,8.98
2023-04-24T08:27:02.811Z,8.90
2023-04-24T08:28:03.222Z,8.88
2023-04-24T08:29:03.035Z,8.88
2023-04-24T08:30:03.387Z,8.88
2023-04-24T08:31:03.014Z,8.87
2023-04-24T08:32:02.733Z,8.88
2023-04-24T08:33:02.196Z,8.89
2023-04-24T08:34:02.642Z,8.89
2023-04-24T08:35:02.191Z,8.91
2023-04-24T08:36:02.007Z,8.93
2023-04-24T08:37:02.903Z,8.93
2023-04-24T08:38:02.759Z,8.92
2023-04-24T08:39:02.611Z,8.94
2023-04-24T08:40:02.950Z,8.94
2023-04-24T08:41:02.469Z,8.91
2023-04-24T08:42:03.065Z,8.95
2023-04-24T08:43:02.887Z,8.95
2023-04-24T08:44:02.726Z,8.95
2023-04-24T08:45:03.018Z,8.88
2023-04-24T08:46:05.543Z,8.86
2023-04-24T08:47:02.495Z,8.83
2023-04-24T08:48:02.148Z,8.83
2023-04-24T08:49:01.956Z,8.83
2023-04-24T08:50:02.511Z,8.82
2023-04-24T08:51:02.146Z,8.83
2023-04-24T08:52:02.740Z,8.81
2023-04-24T08:53:04.509Z,8.83
2023-04-24T08:54:02.200Z,8.84
2023-04-24T08:55:02.668Z,8.80
2023-04-24T08:56:02.412Z,8.73
2023-04-24T08:57:02.959Z,8.67
2023-04-24T08:58:02.951Z,8.59
2023-04-24T08:59:02.879Z,8.52
2023-04-24T09:00:02.638Z,8.46
2023-04-24T09:01:02.540Z,8.47
2023-04-24T09:02:02.249Z,8.44
2023-04-24T09:03:02.066Z,8.35
2023-04-24T09:04:01.889Z,8.29
2023-04-24T09:05:01.643Z,8.23
2023-04-24T09:06:02.206Z,8.18
2023-04-24T09:07:02.568Z,8.11
2023-04-24T09:08:01.929Z,8.07
2023-04-24T09:09:02.558Z,8.03
2023-04-24T09:10:02.236Z,8.01
2023-04-24T09:11:02.194Z,8.00
2023-04-24T09:12:02.702Z,7.98
2023-04-24T09:13:02.430Z,7.93
2023-04-24T09:14:02.217Z,7.82
2023-04-24T09:15:02.661Z,7.76
2023-04-24T09:16:02.212Z,7.74
2023-04-24T09:17:01.686Z,7.71
2023-04-24T09:18:02.039Z,7.69
2023-04-24T09:19:01.958Z,7.66
2023-04-24T09:20:01.824Z,7.62
2023-04-24T09:21:01.670Z,7.61
2023-04-24T09:22:02.793Z,7.60
2023-04-24T09:23:02.258Z,7.61
2023-04-24T09:24:02.143Z,7.59
2023-04-24T09:25:02.620Z,7.57
2023-04-24T09:26:02.124Z,7.55
2023-04-24T09:27:01.712Z,7.57
2023-04-24T09:28:02.318Z,7.57
2023-04-24T09:29:02.008Z,7.52
2023-04-24T09:30:02.021Z,7.53
2023-04-24T09:31:01.764Z,7.53
2023-04-24T09:32:02.533Z,7.55
2023-04-24T09:33:02.526Z,7.56
2023-04-24T09:34:03.284Z,7.57
2023-04-24T09:35:02.694Z,7.57
2023-04-24T09:36:02.683Z,7.58
2023-04-24T09:37:01.520Z,7.62
2023-04-24T09:38:01.446Z,7.65
2023-04-24T09:39:02.023Z,7.71
2023-04-24T09:40:01.781Z,7.70
2023-04-24T09:41:01.676Z,7.73
2023-04-24T09:42:01.523Z,7.72
2023-04-24T09:43:01.880Z,7.73
2023-04-24T09:44:02.013Z,7.75
2023-04-24T09:45:08.100Z,7.76
2023-04-24T09:46:01.598Z,7.78
2023-04-24T09:47:02.029Z,7.82
2023-04-24T09:48:02.545Z,7.80
2023-04-24T09:49:02.327Z,7.80
2023-04-24T09:50:02.360Z,7.82
2023-04-24T09:51:02.371Z,7.85
2023-04-24T09:52:01.593Z,7.87
2023-04-24T09:53:02.007Z,7.87
2023-04-24T09:54:01.580Z,7.87
2023-04-24T09:55:02.046Z,7.87
2023-04-24T09:56:01.587Z,7.91
2023-04-24T09:57:02.559Z,7.96
2023-04-24T09:58:02.252Z,7.98
2023-04-24T09:59:02.186Z,8.00
2023-04-24T10:00:02.089Z,8.01
2023-04-24T10:01:02.660Z,8.02
2023-04-24T10:02:03.028Z,8.04
2023-04-24T10:03:02.836Z,8.04
2023-04-24T10:04:02.920Z,8.05
2023-04-24T10:05:02.921Z,8.06
2023-04-24T10:06:02.900Z,8.02
2023-04-24T10:07:02.480Z,8.03
2023-04-24T10:08:02.381Z,8.05
2023-04-24T10:09:02.428Z,8.06
2023-04-24T10:10:02.460Z,8.02
2023-04-24T10:11:02.568Z,8.03
2023-04-24T10:12:02.111Z,8.03
2023-04-24T10:13:01.943Z,8.04
2023-04-24T10:14:01.868Z,8.05
2023-04-24T10:15:02.389Z,8.04
2023-04-24T10:16:02.306Z,8.03
2023-04-24T10:17:02.693Z,8.04
2023-04-24T10:18:02.614Z,8.06
2023-04-24T10:19:02.426Z,8.06
2023-04-24T10:20:02.415Z,8.08
2023-04-24T10:21:02.958Z,8.11
2023-04-24T10:22:02.739Z,8.11
2023-04-24T10:23:02.609Z,8.11
2023-04-24T10:24:02.596Z,8.14
2023-04-24T10:25:02.525Z,8.21
2023-04-24T10:26:02.587Z,8.25
2023-04-24T10:27:02.302Z,8.31
2023-04-24T10:28:02.194Z,8.33
2023-04-24T10:29:02.389Z,8.36
2023-04-24T10:30:02.361Z,8.36
2023-04-24T10:31:02.327Z,8.38
2023-04-24T10:32:02.730Z,8.42
2023-04-24T10:33:02.532Z,8.44
2023-04-24T10:34:02.987Z,8.45
2023-04-24T10:35:02.662Z,8.50
2023-04-24T10:36:02.536Z,8.55
2023-04-24T10:37:02.237Z,8.58
2023-04-24T10:38:02.203Z,8.61
2023-04-24T10:39:02.130Z,8.63
2023-04-24T10:40:02.032Z,8.68
2023-04-24T10:41:02.471Z,8.74
2023-04-24T10:42:02.803Z,8.75
2023-04-24T10:43:02.598Z,8.80
2023-04-24T10:44:02.883Z,8.83
2023-04-24T10:45:02.888Z,8.86
2023-04-24T10:46:02.519Z,8.89
2023-04-24T10:47:02.591Z,8.91
2023-04-24T10:48:03.596Z,8.90
2023-04-24T10:49:02.467Z,8.86
2023-04-24T10:50:02.529Z,8.85
2023-04-24T10:51:02.389Z,8.85
2023-04-24T10:52:02.487Z,8.87
2023-04-24T10:53:02.358Z,8.90
2023-04-24T10:54:02.449Z,8.95
2023-04-24T10:55:02.317Z,8.99
2023-04-24T10:56:02.332Z,8.99
2023-04-24T10:57:02.951Z,8.98
2023-04-24T10:58:02.885Z,9.01
2023-04-24T10:59:02.527Z,9.03
2023-04-24T11:00:03.785Z,9.06
2023-04-24T11:01:03.031Z,9.08
2023-04-24T11:02:02.382Z,9.12
2023-04-24T11:03:02.573Z,9.15
2023-04-24T11:04:02.596Z,9.18
2023-04-24T11:05:01.939Z,9.21
2023-04-24T11:06:01.859Z,9.26
2023-04-24T11:07:02.457Z,9.30
2023-04-24T11:08:02.275Z,9.36
2023-04-24T11:09:02.580Z,9.41
2023-04-24T11:10:02.248Z,9.46
2023-04-24T11:11:02.354Z,9.50
2023-04-24T11:12:02.546Z,9.58
2023-04-24T11:13:02.479Z,9.63
2023-04-24T11:14:02.125Z,9.67
2023-04-24T11:15:02.645Z,9.70
2023-04-24T11:16:02.083Z,9.76
2023-04-24T11:17:02.866Z,9.81
2023-04-24T11:18:02.736Z,9.85
2023-04-24T11:19:02.763Z,9.88
2023-04-24T11:20:12.087Z,9.90
2023-04-24T11:21:02.461Z,9.92
2023-04-24T11:22:02.944Z,9.92
2023-04-24T11:23:02.766Z,9.95
2023-04-24T11:24:02.364Z,9.92
2023-04-24T11:25:02.563Z,9.89
2023-04-24T11:26:02.490Z,9.86
2023-04-24T11:27:02.929Z,9.85
2023-04-24T11:28:02.999Z,9.82
2023-04-24T11:29:03.112Z,9.82
2023-04-24T11:30:03.187Z,9.81
2023-04-24T11:31:02.690Z,9.81
2023-04-24T11:32:02.376Z,9.80
2023-04-24T11:33:02.409Z,9.79
2023-04-24T11:34:02.276Z,9.79
2023-04-24T11:35:02.218Z,9.77
2023-04-24T11:36:02.222Z,9.77
2023-04-24T11:37:02.581Z,9.76
2023-04-24T11:38:22.611Z,9.78
2023-04-24T11:39:01.974Z,9.80
2023-04-24T11:40:02.704Z,9.85
2023-04-24T11:41:02.020Z,9.88
2023-04-24T11:42:02.773Z,9.91
2023-04-24T11:43:02.855Z,9.95
2023-04-24T11:44:02.542Z,9.94
2023-04-24T11:45:03.266Z,9.91
2023-04-24T11:46:03.386Z,9.88
2023-04-24T11:47:03.222Z,9.81
2023-04-24T11:48:03.381Z,9.78
2023-04-24T11:49:03.289Z,9.74
2023-04-24T11:50:03.244Z,9.75
2023-04-24T11:51:02.902Z,9.77
2023-04-24T11:52:02.481Z,9.78
2023-04-24T11:53:02.200Z,9.77
2023-04-24T11:54:04.570Z,9.76
2023-04-24T11:55:02.783Z,9.77
2023-04-24T11:56:01.868Z,9.81
2023-04-24T11:57:03.153Z,9.83
2023-04-24T11:58:02.990Z,9.80
2023-04-24T11:59:03.138Z,9.82
2023-04-24T12:00:03.013Z,9.82
2023-04-24T12:01:02.634Z,9.84
2023-04-24T12:02:01.845Z,9.87
2023-04-24T12:03:01.898Z,9.89
2023-04-24T12:04:02.383Z,9.85
2023-04-24T12:05:02.438Z,9.82
2023-04-24T12:06:02.133Z,9.79
2023-04-24T12:07:02.400Z,9.73
2023-04-24T12:08:02.874Z,9.73
2023-04-24T12:09:11.389Z,9.70
2023-04-24T12:10:02.911Z,9.71
2023-04-24T12:11:03.062Z,9.74
2023-04-24T12:12:02.478Z,9.73
2023-04-24T12:13:03.064Z,9.77
2023-04-24T12:14:02.619Z,9.77
2023-04-24T12:15:02.853Z,9.79
2023-04-24T12:16:02.881Z,9.80
2023-04-24T12:17:02.789Z,9.85
2023-04-24T12:18:02.125Z,9.86
2023-04-24T12:19:02.261Z,9.88
2023-04-24T12:20:01.890Z,9.91
2023-04-24T12:21:02.347Z,9.95
2023-04-24T12:22:02.233Z,9.98
2023-04-24T12:23:02.846Z,10.00
2023-04-24T12:24:02.476Z,10.03
2023-04-24T12:25:03.030Z,10.08
2023-04-24T12:26:02.913Z,10.14
2023-04-24T12:27:02.723Z,10.19
2023-04-24T12:28:02.067Z,10.23
2023-04-24T12:29:01.915Z,10.26
2023-04-24T12:30:01.948Z,10.27
2023-04-24T12:31:02.519Z,10.33
2023-04-24T12:32:02.421Z,10.40
2023-04-24T12:33:02.147Z,10.48
2023-04-24T12:34:02.094Z,10.54
2023-04-24T12:35:02.352Z,10.60
2023-04-24T12:36:02.238Z,10.67
2023-04-24T12:37:02.317Z,10.67
2023-04-24T12:38:02.709Z,10.72
2023-04-24T12:39:02.311Z,10.78
2023-04-24T12:40:02.281Z,10.82
2023-04-24T12:41:02.333Z,10.81
2023-04-24T12:42:02.356Z,10.85
2023-04-24T12:43:01.699Z,10.88
2023-04-24T12:44:01.977Z,10.92
2023-04-24T12:45:01.717Z,10.94
2023-04-24T12:46:01.716Z,10.94
2023-04-24T12:47:01.697Z,10.95
2023-04-24T12:48:02.142Z,10.95
2023-04-24T12:49:02.135Z,10.92
2023-04-24T12:50:02.647Z,10.91
2023-04-24T12:51:02.408Z,10.92
2023-04-24T12:52:02.588Z,10.88
2023-04-24T12:53:02.457Z,10.87
2023-04-24T12:54:02.269Z,10.90
2023-04-24T12:55:02.211Z,10.95
2023-04-24T12:56:02.275Z,11.00
2023-04-24T12:57:02.128Z,11.04
2023-04-24T12:58:02.972Z,11.09
2023-04-24T12:59:03.186Z,11.08
2023-04-24T13:00:02.539Z,11.09
2023-04-24T13:01:02.817Z,11.10
2023-04-24T13:02:03.104Z,11.07
2023-04-24T13:03:03.787Z,11.08
2023-04-24T13:04:03.333Z,11.11
2023-04-24T13:05:03.126Z,11.15
2023-04-24T13:06:02.970Z,11.15
2023-04-24T13:07:02.591Z,11.13
2023-04-24T13:08:03.338Z,11.15
2023-04-24T13:09:03.357Z,11.17
2023-04-24T13:10:02.936Z,11.17
2023-04-24T13:11:03.596Z,11.17